
Distance (Route):
Temperature : 7.9°C
Humidity : 75.4%
Pressure : 0hPa| Receiver | Frames | First received | Last received |
|---|---|---|---|
| LZ4TU-5 | 142 | 2026-08-30 23:25:28 | 2026-08-31 01:13:20 |
| Receiver | Date | Latitude | Longitude | Direction | Speed | Altitude | Climb | Temperature | Humidity | Pressure | Voltage | Killtimer | Uptime | BKT | XDATA |
|---|---|---|---|---|---|---|---|---|---|---|---|---|---|---|---|
| LZ4TU-5 | 2026-08-31 01:13:20 | 43.14402 | 22.33494 | 118° | 22km/h | 3144m | -14.0m/s | 7.9°C | 75.4% | 0hPa | 0V | 00:00:00 | 00:00:00 | 00:00:00 | |
| LZ4TU-5 | 2026-08-31 01:13:16 | 43.14413 | 22.33469 | 120° | 22km/h | 3202m | -13.9m/s | 7.4°C | 77.5% | 0hPa | 0V | 00:00:00 | 00:00:00 | 00:00:00 | |
| LZ4TU-5 | 2026-08-31 01:13:06 | 43.14442 | 22.33405 | 118° | 22km/h | 3341m | -13.9m/s | 6.1°C | 85.4% | 0hPa | 0V | 00:00:00 | 00:00:00 | 00:00:00 | |
| LZ4TU-5 | 2026-08-31 01:13:02 | 43.14451 | 22.33375 | 122° | 22km/h | 3388m | -13.9m/s | 5.7°C | 85.9% | 0hPa | 0V | 00:00:00 | 00:00:00 | 00:00:00 | |
| LZ4TU-5 | 2026-08-31 01:12:58 | 43.14463 | 22.33350 | 130° | 22km/h | 3446m | -13.9m/s | 5.3°C | 89.8% | 0hPa | 0V | 00:00:00 | 00:00:00 | 00:00:00 | |
| LZ4TU-5 | 2026-08-31 01:12:53 | 43.14483 | 22.33320 | 132° | 24km/h | 3518m | -13.9m/s | 4.8°C | 90.7% | 0hPa | 0V | 00:00:00 | 00:00:00 | 00:00:00 | |
| LZ4TU-5 | 2026-08-31 01:12:49 | 43.14499 | 22.33295 | 132° | 24km/h | 3577m | -14.1m/s | 4.3°C | 90.8% | 0hPa | 0V | 00:00:00 | 00:00:00 | 00:00:00 | |
| LZ4TU-5 | 2026-08-31 01:12:44 | 43.14519 | 22.33260 | 131° | 26km/h | 3649m | -14.1m/s | 3.8°C | 90.5% | 0hPa | 0V | 00:00:00 | 00:00:00 | 00:00:00 | |
| LZ4TU-5 | 2026-08-31 01:12:39 | 43.14537 | 22.33228 | 133° | 26km/h | 3718m | -13.8m/s | 3.3°C | 88.2% | 0hPa | 0V | 00:00:00 | 00:00:00 | 00:00:00 | |
| LZ4TU-5 | 2026-08-31 01:12:35 | 43.14552 | 22.33200 | 132° | 26km/h | 3771m | -14.3m/s | 2.9°C | 87.4% | 0hPa | 0V | 00:00:00 | 00:00:00 | 00:00:00 | |
| LZ4TU-5 | 2026-08-31 01:12:30 | 43.14572 | 22.33165 | 128° | 26km/h | 3845m | -14.2m/s | 2.6°C | 81.9% | 0hPa | 0V | 00:00:00 | 00:00:00 | 00:00:00 | |
| LZ4TU-5 | 2026-08-31 01:12:25 | 43.14593 | 22.33129 | 129° | 27km/h | 3919m | -13.9m/s | 2.3°C | 76.1% | 0hPa | 0V | 00:00:00 | 00:00:00 | 00:00:00 | |
| LZ4TU-5 | 2026-08-31 01:12:21 | 43.14611 | 22.33100 | 124° | 27km/h | 3976m | -14.1m/s | 1.9°C | 73.7% | 0hPa | 0V | 00:00:00 | 00:00:00 | 00:00:00 | |
| LZ4TU-5 | 2026-08-31 01:12:16 | 43.14632 | 22.33062 | 122° | 27km/h | 4042m | -14.5m/s | 1.5°C | 70.1% | 0hPa | 0V | 00:00:00 | 00:00:00 | 00:00:00 | |
| LZ4TU-5 | 2026-08-31 01:12:12 | 43.14651 | 22.33033 | 122° | 27km/h | 4098m | -14.6m/s | 1.1°C | 66.6% | 0hPa | 0V | 00:00:00 | 00:00:00 | 00:00:00 | |
| LZ4TU-5 | 2026-08-31 01:12:07 | 43.14667 | 22.32990 | 119° | 29km/h | 4166m | -15.1m/s | 0.9°C | 63.9% | 0hPa | 0V | 00:00:00 | 00:00:00 | 00:00:00 | |
| LZ4TU-5 | 2026-08-31 01:12:02 | 43.14683 | 22.32942 | 119° | 29km/h | 4241m | -14.2m/s | 0.3°C | 71.6% | 0hPa | 0V | 00:00:00 | 00:00:00 | 00:00:00 | |
| LZ4TU-5 | 2026-08-31 01:11:58 | 43.14696 | 22.32904 | 117° | 29km/h | 4300m | -15.2m/s | -0.1°C | 71.8% | 0hPa | 0V | 00:00:00 | 00:00:00 | 00:00:00 | |
| LZ4TU-5 | 2026-08-31 01:11:53 | 43.14714 | 22.32859 | 118° | 29km/h | 4373m | -15.4m/s | -0.6°C | 69.9% | 0hPa | 0V | 00:00:00 | 00:00:00 | 00:00:00 | |
| LZ4TU-5 | 2026-08-31 01:11:48 | 43.14733 | 22.32817 | 122° | 27km/h | 4444m | -15.0m/s | -1.0°C | 58.6% | 0hPa | 0V | 00:00:00 | 00:00:00 | 00:00:00 | |
| LZ4TU-5 | 2026-08-31 01:11:40 | 43.14759 | 22.32756 | 122° | 20km/h | 4535m | -15.2m/s | -1.3°C | 35.5% | 0hPa | 0V | 00:00:00 | 00:00:00 | 00:00:00 | |
| LZ4TU-5 | 2026-08-31 01:11:35 | 43.14773 | 22.32730 | 132° | 16km/h | 4610m | -14.4m/s | -1.2°C | 35.2% | 0hPa | 0V | 00:00:00 | 00:00:00 | 00:00:00 | |
| LZ4TU-5 | 2026-08-31 01:11:30 | 43.14787 | 22.32711 | 145° | 15km/h | 4686m | -14.5m/s | -1.8°C | 48.5% | 0hPa | 0V | 00:00:00 | 00:00:00 | 00:00:00 | |
| LZ4TU-5 | 2026-08-31 01:11:25 | 43.14802 | 22.32697 | 151° | 16km/h | 4763m | -14.8m/s | -2.5°C | 54.4% | 0hPa | 0V | 00:00:00 | 00:00:00 | 00:00:00 | |
| LZ4TU-5 | 2026-08-31 01:11:20 | 43.14818 | 22.32683 | 149° | 16km/h | 4841m | -14.8m/s | -3.0°C | 55.2% | 0hPa | 0V | 00:00:00 | 00:00:00 | 00:00:00 | |
| LZ4TU-5 | 2026-08-31 01:11:16 | 43.14833 | 22.32669 | 151° | 18km/h | 4901m | -14.8m/s | -3.6°C | 60.2% | 0hPa | 0V | 00:00:00 | 00:00:00 | 00:00:00 | |
| LZ4TU-5 | 2026-08-31 01:11:11 | 43.14854 | 22.32652 | 146° | 20km/h | 4977m | -15.0m/s | -4.2°C | 61.3% | 0hPa | 0V | 00:00:00 | 00:00:00 | 00:00:00 | |
| LZ4TU-5 | 2026-08-31 01:11:07 | 43.14869 | 22.32634 | 139° | 22km/h | 5040m | -15.2m/s | -4.7°C | 60.1% | 0hPa | 0V | 00:00:00 | 00:00:00 | 00:00:00 | |
| LZ4TU-5 | 2026-08-31 01:09:34 | 43.15295 | 22.31743 | 127° | 40km/h | 6441m | -15.3m/s | -12.0°C | 23.1% | 0hPa | 0V | 00:00:00 | 00:00:00 | 00:00:00 | |
| LZ4TU-5 | 2026-08-31 01:09:30 | 43.15319 | 22.31697 | 127° | 40km/h | 6504m | -15.8m/s | -12.3°C | 19.9% | 0hPa | 0V | 00:00:00 | 00:00:00 | 00:00:00 | |
| LZ4TU-5 | 2026-08-31 01:08:10 | 43.15767 | 22.30910 | 138° | 37km/h | 7727m | -15.4m/s | -21.8°C | 11.0% | 0hPa | 0V | 00:00:00 | 00:00:00 | 00:00:00 | |
| LZ4TU-5 | 2026-08-31 01:08:06 | 43.15793 | 22.30876 | 136° | 33km/h | 7791m | -15.5m/s | -22.0°C | 10.3% | 0hPa | 0V | 00:00:00 | 00:00:00 | 00:00:00 | |
| LZ4TU-5 | 2026-08-31 01:06:52 | 43.16253 | 22.30333 | 146° | 42km/h | 8968m | -16.7m/s | -30.6°C | 16.5% | 0hPa | 0V | 00:00:00 | 00:00:00 | 00:00:00 | |
| LZ4TU-5 | 2026-08-31 01:06:47 | 43.16299 | 22.30293 | 146° | 42km/h | 9054m | -16.5m/s | -31.4°C | 18.0% | 0hPa | 0V | 00:00:00 | 00:00:00 | 00:00:00 | |
| LZ4TU-5 | 2026-08-31 01:05:16 | 43.17178 | 22.29328 | 135° | 53km/h | 10506m | -16.5m/s | -44.1°C | 30.9% | 0hPa | 0V | 00:00:00 | 00:00:00 | 00:00:00 | |
| LZ4TU-5 | 2026-08-31 01:05:11 | 43.17229 | 22.29269 | 146° | 49km/h | 10589m | -16.3m/s | -44.6°C | 31.4% | 0hPa | 0V | 00:00:00 | 00:00:00 | 00:00:00 | |
| LZ4TU-5 | 2026-08-31 01:02:41 | 43.18414 | 22.27320 | 108° | 57km/h | 13417m | -22.1m/s | -58.7°C | 7.9% | 0hPa | 0V | 00:00:00 | 00:00:00 | 00:00:00 | |
| LZ4TU-5 | 2026-08-31 01:02:37 | 43.18432 | 22.27240 | 114° | 60km/h | 13505m | -22.5m/s | -58.6°C | 7.4% | 0hPa | 0V | 00:00:00 | 00:00:00 | 00:00:00 | |
| LZ4TU-5 | 2026-08-31 00:56:31 | 43.18706 | 22.25145 | 170° | 5km/h | 25480m | -48.4m/s | -49.7°C | 0.2% | 0hPa | 0V | 00:00:00 | 00:00:00 | 00:00:00 | |
| LZ4TU-5 | 2026-08-31 00:56:25 | 43.18718 | 22.25153 | 186° | 11km/h | 25730m | -52.2m/s | -48.2°C | 0.0% | 0hPa | 0V | 00:00:00 | 00:00:00 | 00:00:00 | |
| LZ4TU-5 | 2026-08-31 00:56:20 | 43.18732 | 22.25139 | 172° | 9km/h | 26005m | -53.2m/s | -47.8°C | 0.0% | 0hPa | 0V | 00:00:00 | 00:00:00 | 00:00:00 | |
| LZ4TU-5 | 2026-08-31 00:54:25 | 43.18624 | 22.25219 | 303° | 37km/h | 32308m | 3.7m/s | -42.7°C | 0.0% | 0hPa | 0V | 00:00:00 | 00:00:00 | 00:00:00 | |
| LZ4TU-5 | 2026-08-31 00:54:20 | 43.18606 | 22.25202 | 115° | 29km/h | 32277m | 3.6m/s | -42.5°C | 0.0% | 0hPa | 0V | 00:00:00 | 00:00:00 | 00:00:00 | |
| LZ4TU-5 | 2026-08-31 00:51:54 | 43.18673 | 22.25571 | 86° | 9km/h | 31239m | 8.9m/s | -40.5°C | 0.0% | 0hPa | 0V | 00:00:00 | 00:00:00 | 00:00:00 | |
| LZ4TU-5 | 2026-08-31 00:51:49 | 43.18656 | 22.25574 | 69° | 22km/h | 31208m | 7.4m/s | -40.6°C | 0.0% | 0hPa | 0V | 00:00:00 | 00:00:00 | 00:00:00 | |
| LZ4TU-5 | 2026-08-31 00:49:51 | 43.18147 | 22.25193 | 96° | 9km/h | 30475m | 3.4m/s | -44.7°C | 0.0% | 0hPa | 0V | 00:00:00 | 00:00:00 | 00:00:00 | |
| LZ4TU-5 | 2026-08-31 00:49:46 | 43.18118 | 22.25200 | 329° | 35km/h | 30446m | 2.3m/s | -45.1°C | 0.0% | 0hPa | 0V | 00:00:00 | 00:00:00 | 00:00:00 | |
| LZ4TU-5 | 2026-08-31 00:46:51 | 43.17681 | 22.25060 | 95° | 29km/h | 29281m | 4.7m/s | -45.8°C | 0.0% | 0hPa | 0V | 00:00:00 | 00:00:00 | 00:00:00 | |
| LZ4TU-5 | 2026-08-31 00:46:46 | 43.17657 | 22.25067 | 340° | 49km/h | 29245m | 7.0m/s | -45.7°C | 0.0% | 0hPa | 0V | 00:00:00 | 00:00:00 | 00:00:00 | |
| LZ4TU-5 | 2026-08-31 00:44:07 | 43.17051 | 22.25066 | 318° | 24km/h | 28205m | 7.6m/s | -46.1°C | 0.0% | 0hPa | 0V | 00:00:00 | 00:00:00 | 00:00:00 | |
| LZ4TU-5 | 2026-08-31 00:44:03 | 43.17030 | 22.25110 | 299° | 38km/h | 28179m | 5.4m/s | -46.0°C | 0.0% | 0hPa | 0V | 00:00:00 | 00:00:00 | 00:00:00 | |
| LZ4TU-5 | 2026-08-31 00:41:02 | 43.17169 | 22.25326 | 116° | 18km/h | 27003m | 7.3m/s | -48.2°C | 0.0% | 0hPa | 0V | 00:00:00 | 00:00:00 | 00:00:00 | |
| LZ4TU-5 | 2026-08-31 00:40:57 | 43.17177 | 22.25308 | 185° | 27km/h | 26972m | 7.7m/s | -48.2°C | 0.0% | 0hPa | 0V | 00:00:00 | 00:00:00 | 00:00:00 | |
| LZ4TU-5 | 2026-08-31 00:39:10 | 43.17188 | 22.25271 | 261° | 7km/h | 26320m | 5.0m/s | -48.9°C | 0.0% | 0hPa | 0V | 00:00:00 | 00:00:00 | 00:00:00 | |
| LZ4TU-5 | 2026-08-31 00:39:05 | 43.17202 | 22.25279 | 228° | 7km/h | 26286m | 6.9m/s | -48.8°C | 0.0% | 0hPa | 0V | 00:00:00 | 00:00:00 | 00:00:00 | |
| LZ4TU-5 | 2026-08-31 00:37:23 | 43.17369 | 22.25281 | 129° | 20km/h | 25626m | 5.8m/s | -50.3°C | 0.0% | 0hPa | 0V | 00:00:00 | 00:00:00 | 00:00:00 | |
| LZ4TU-5 | 2026-08-31 00:37:18 | 43.17385 | 22.25284 | 277° | 9km/h | 25597m | 4.1m/s | -50.6°C | 0.0% | 0hPa | 0V | 00:00:00 | 00:00:00 | 00:00:00 | |
| LZ4TU-5 | 2026-08-31 00:35:13 | 43.17280 | 22.25373 | 327° | 24km/h | 24837m | 4.7m/s | -53.9°C | 0.0% | 0hPa | 0V | 00:00:00 | 00:00:00 | 00:00:00 | |
| LZ4TU-5 | 2026-08-31 00:35:08 | 43.17275 | 22.25403 | 260° | 24km/h | 24808m | 6.9m/s | -54.0°C | 0.0% | 0hPa | 0V | 00:00:00 | 00:00:00 | 00:00:00 | |
| LZ4TU-5 | 2026-08-31 00:33:28 | 43.17206 | 22.25638 | 208° | 9km/h | 24209m | 6.8m/s | -55.7°C | 0.3% | 0hPa | 0V | 00:00:00 | 00:00:00 | 00:00:00 | |
| LZ4TU-5 | 2026-08-31 00:33:24 | 43.17213 | 22.25635 | 33° | 7km/h | 24184m | 5.8m/s | -55.7°C | 0.3% | 0hPa | 0V | 00:00:00 | 00:00:00 | 00:00:00 | |
| LZ4TU-5 | 2026-08-31 00:31:38 | 43.17029 | 22.25925 | 316° | 5km/h | 23520m | 6.1m/s | -54.8°C | 0.3% | 0hPa | 0V | 00:00:00 | 00:00:00 | 00:00:00 | |
| LZ4TU-5 | 2026-08-31 00:31:33 | 43.17025 | 22.25923 | 269° | 16km/h | 23492m | 6.1m/s | -54.8°C | 0.3% | 0hPa | 0V | 00:00:00 | 00:00:00 | 00:00:00 | |
| LZ4TU-5 | 2026-08-31 00:29:58 | 43.16908 | 22.26314 | 237° | 9km/h | 22948m | 5.4m/s | -55.7°C | 0.4% | 0hPa | 0V | 00:00:00 | 00:00:00 | 00:00:00 | |
| LZ4TU-5 | 2026-08-31 00:29:53 | 43.16923 | 22.26333 | 181° | 13km/h | 22920m | 6.9m/s | -55.9°C | 0.4% | 0hPa | 0V | 00:00:00 | 00:00:00 | 00:00:00 | |
| LZ4TU-5 | 2026-08-31 00:28:18 | 43.17114 | 22.26419 | 23° | 16km/h | 22344m | 5.9m/s | -55.1°C | 0.5% | 0hPa | 0V | 00:00:00 | 00:00:00 | 00:00:00 | |
| LZ4TU-5 | 2026-08-31 00:28:13 | 43.17103 | 22.26421 | 330° | 11km/h | 22315m | 4.3m/s | -55.2°C | 0.5% | 0hPa | 0V | 00:00:00 | 00:00:00 | 00:00:00 | |
| LZ4TU-5 | 2026-08-31 00:26:36 | 43.16970 | 22.26633 | 343° | 11km/h | 21759m | 6.6m/s | -54.8°C | 0.7% | 0hPa | 0V | 00:00:00 | 00:00:00 | 00:00:00 | |
| LZ4TU-5 | 2026-08-31 00:26:32 | 43.16956 | 22.26629 | 51° | 13km/h | 21737m | 4.2m/s | -54.6°C | 0.6% | 0hPa | 0V | 00:00:00 | 00:00:00 | 00:00:00 | |
| LZ4TU-5 | 2026-08-31 00:24:49 | 43.16693 | 22.26653 | 334° | 16km/h | 21149m | 5.1m/s | -56.5°C | 0.8% | 0hPa | 0V | 00:00:00 | 00:00:00 | 00:00:00 | |
| LZ4TU-5 | 2026-08-31 00:24:45 | 43.16682 | 22.26657 | 39° | 5km/h | 21126m | 6.7m/s | -56.5°C | 0.8% | 0hPa | 0V | 00:00:00 | 00:00:00 | 00:00:00 | |
| LZ4TU-5 | 2026-08-31 00:23:13 | 43.16326 | 22.26645 | 354° | 24km/h | 20605m | 5.2m/s | -57.0°C | 1.0% | 0hPa | 0V | 00:00:00 | 00:00:00 | 00:00:00 | |
| LZ4TU-5 | 2026-08-31 00:23:08 | 43.16305 | 22.26658 | 326° | 22km/h | 20577m | 5.7m/s | -56.8°C | 0.9% | 0hPa | 0V | 00:00:00 | 00:00:00 | 00:00:00 | |
| LZ4TU-5 | 2026-08-31 00:21:32 | 43.16137 | 22.26856 | 181° | 5km/h | 20054m | 5.7m/s | -57.4°C | 1.2% | 0hPa | 0V | 00:00:00 | 00:00:00 | 00:00:00 | |
| LZ4TU-5 | 2026-08-31 00:19:51 | 43.15869 | 22.26804 | 341° | 5km/h | 19504m | 4.8m/s | -57.1°C | 1.5% | 0hPa | 0V | 00:00:00 | 00:00:00 | 00:00:00 | |
| LZ4TU-5 | 2026-08-31 00:18:11 | 43.15897 | 22.26767 | 307° | 9km/h | 18960m | 4.4m/s | -57.5°C | 1.4% | 0hPa | 0V | 00:00:00 | 00:00:00 | 00:00:00 | |
| LZ4TU-5 | 2026-08-31 00:18:06 | 43.15891 | 22.26776 | 114° | 7km/h | 18935m | 5.1m/s | -58.6°C | 1.7% | 0hPa | 0V | 00:00:00 | 00:00:00 | 00:00:00 | |
| LZ4TU-5 | 2026-08-31 00:16:25 | 43.15918 | 22.26386 | 94° | 20km/h | 18377m | 5.9m/s | -58.3°C | 2.5% | 0hPa | 0V | 00:00:00 | 00:00:00 | 00:00:00 | |
| LZ4TU-5 | 2026-08-31 00:16:21 | 43.15921 | 22.26358 | 120° | 26km/h | 18356m | 4.6m/s | -58.2°C | 2.5% | 0hPa | 0V | 00:00:00 | 00:00:00 | 00:00:00 | |
| LZ4TU-5 | 2026-08-31 00:14:48 | 43.16071 | 22.25834 | 56° | 29km/h | 17876m | 5.4m/s | -59.0°C | 2.3% | 0hPa | 0V | 00:00:00 | 00:00:00 | 00:00:00 | |
| LZ4TU-5 | 2026-08-31 00:14:43 | 43.16063 | 22.25794 | 75° | 20km/h | 17850m | 5.1m/s | -59.7°C | 2.5% | 0hPa | 0V | 00:00:00 | 00:00:00 | 00:00:00 | |
| LZ4TU-5 | 2026-08-31 00:13:13 | 43.15977 | 22.25460 | 133° | 18km/h | 17384m | 5.3m/s | -59.4°C | 3.0% | 0hPa | 0V | 00:00:00 | 00:00:00 | 00:00:00 | |
| LZ4TU-5 | 2026-08-31 00:13:08 | 43.15990 | 22.25445 | 104° | 13km/h | 17359m | 3.8m/s | -59.3°C | 3.0% | 0hPa | 0V | 00:00:00 | 00:00:00 | 00:00:00 | |
| LZ4TU-5 | 2026-08-31 00:11:39 | 43.16250 | 22.24839 | 102° | 31km/h | 16923m | 4.8m/s | -58.7°C | 3.7% | 0hPa | 0V | 00:00:00 | 00:00:00 | 00:00:00 | |
| LZ4TU-5 | 2026-08-31 00:11:34 | 43.16253 | 22.24792 | 102° | 33km/h | 16899m | 4.1m/s | -58.7°C | 3.7% | 0hPa | 0V | 00:00:00 | 00:00:00 | 00:00:00 | |
| LZ4TU-5 | 2026-08-31 00:09:58 | 43.16395 | 22.23821 | 97° | 27km/h | 16415m | 4.1m/s | -58.4°C | 4.4% | 0hPa | 0V | 00:00:00 | 00:00:00 | 00:00:00 | |
| LZ4TU-5 | 2026-08-31 00:09:53 | 43.16392 | 22.23766 | 96° | 31km/h | 16390m | 5.4m/s | -58.3°C | 4.4% | 0hPa | 0V | 00:00:00 | 00:00:00 | 00:00:00 | |
| LZ4TU-5 | 2026-08-31 00:07:57 | 43.16175 | 22.23027 | 101° | 13km/h | 15821m | 4.5m/s | -60.0°C | 6.4% | 0hPa | 0V | 00:00:00 | 00:00:00 | 00:00:00 | |
| LZ4TU-5 | 2026-08-31 00:07:53 | 43.16183 | 22.23004 | 125° | 22km/h | 15802m | 5.2m/s | -60.1°C | 6.5% | 0hPa | 0V | 00:00:00 | 00:00:00 | 00:00:00 | |
| LZ4TU-5 | 2026-08-31 00:05:38 | 43.17069 | 22.21068 | 111° | 73km/h | 15100m | 3.5m/s | -59.4°C | 10.3% | 0hPa | 0V | 00:00:00 | 00:00:00 | 00:00:00 | |
| LZ4TU-5 | 2026-08-31 00:05:34 | 43.17089 | 22.20984 | 109° | 55km/h | 15081m | 5.0m/s | -59.6°C | 10.4% | 0hPa | 0V | 00:00:00 | 00:00:00 | 00:00:00 | |
| LZ4TU-5 | 2026-08-31 00:03:55 | 43.17255 | 22.18831 | 81° | 47km/h | 14612m | 5.2m/s | -59.8°C | 13.6% | 0hPa | 0V | 00:00:00 | 00:00:00 | 00:00:00 | |
| LZ4TU-5 | 2026-08-31 00:03:51 | 43.17251 | 22.18772 | 91° | 42km/h | 14592m | 4.8m/s | -59.6°C | 13.6% | 0hPa | 0V | 00:00:00 | 00:00:00 | 00:00:00 | |
| LZ4TU-5 | 2026-08-31 00:02:45 | 43.17482 | 22.17319 | 111° | 55km/h | 14099m | 4.5m/s | -59.5°C | 16.5% | 0hPa | 0V | 00:00:00 | 00:00:00 | 00:00:00 | |
| LZ4TU-5 | 2026-08-31 00:02:36 | 43.17511 | 22.17236 | 123° | 53km/h | 14074m | 5.1m/s | -59.5°C | 16.7% | 0hPa | 0V | 00:00:00 | 00:00:00 | 00:00:00 | |
| LZ4TU-5 | 2026-08-31 00:00:35 | 43.17936 | 22.15353 | 106° | 53km/h | 13612m | 4.4m/s | -58.7°C | 20.9% | 0hPa | 0V | 00:00:00 | 00:00:00 | 00:00:00 | |
| LZ4TU-5 | 2026-08-31 00:00:32 | 43.17951 | 22.15276 | 108° | 68km/h | 13593m | 5.8m/s | -58.6°C | 21.0% | 0hPa | 0V | 00:00:00 | 00:00:00 | 00:00:00 | |
| LZ4TU-5 | 2026-08-30 23:58:56 | 43.18422 | 22.13631 | 117° | 58km/h | 13152m | 4.1m/s | -58.3°C | 26.2% | 0hPa | 0V | 00:00:00 | 00:00:00 | 00:00:00 | |
| LZ4TU-5 | 2026-08-30 23:58:52 | 43.18447 | 22.13573 | 123° | 46km/h | 13133m | 4.5m/s | -58.3°C | 26.5% | 0hPa | 0V | 00:00:00 | 00:00:00 | 00:00:00 | |
| LZ4TU-5 | 2026-08-30 23:57:27 | 43.18961 | 22.12155 | 132° | 55km/h | 12749m | 5.2m/s | -57.5°C | 33.0% | 0hPa | 0V | 00:00:00 | 00:00:00 | 00:00:00 | |
| LZ4TU-5 | 2026-08-30 23:57:22 | 43.18999 | 22.12074 | 112° | 58km/h | 12727m | 5.2m/s | -57.5°C | 33.4% | 0hPa | 0V | 00:00:00 | 00:00:00 | 00:00:00 | |
| LZ4TU-5 | 2026-08-30 23:55:51 | 43.19645 | 22.10317 | 117° | 64km/h | 12295m | 5.1m/s | -56.2°C | 37.2% | 0hPa | 0V | 00:00:00 | 00:00:00 | 00:00:00 | |
| LZ4TU-5 | 2026-08-30 23:55:46 | 43.19682 | 22.10211 | 117° | 68km/h | 12270m | 5.5m/s | -56.2°C | 37.3% | 0hPa | 0V | 00:00:00 | 00:00:00 | 00:00:00 | |
| LZ4TU-5 | 2026-08-30 23:54:15 | 43.20311 | 22.08382 | 131° | 64km/h | 11804m | 5.1m/s | -54.4°C | 36.6% | 0hPa | 0V | 00:00:00 | 00:00:00 | 00:00:00 | |
| LZ4TU-5 | 2026-08-30 23:54:10 | 43.20361 | 22.08298 | 131° | 55km/h | 11779m | 4.5m/s | -54.3°C | 36.4% | 0hPa | 0V | 00:00:00 | 00:00:00 | 00:00:00 | |
| LZ4TU-5 | 2026-08-30 23:52:31 | 43.21254 | 22.06990 | 154° | 51km/h | 11273m | 5.2m/s | -50.3°C | 27.8% | 0hPa | 0V | 00:00:00 | 00:00:00 | 00:00:00 | |
| LZ4TU-5 | 2026-08-30 23:52:27 | 43.21306 | 22.06944 | 150° | 42km/h | 11250m | 4.1m/s | -50.2°C | 27.5% | 0hPa | 0V | 00:00:00 | 00:00:00 | 00:00:00 | |
| LZ4TU-5 | 2026-08-30 23:50:45 | 43.22366 | 22.06188 | 132° | 44km/h | 10774m | 3.7m/s | -46.4°C | 25.6% | 0hPa | 0V | 00:00:00 | 00:00:00 | 00:00:00 | |
| LZ4TU-5 | 2026-08-30 23:50:41 | 43.22413 | 22.06134 | 141° | 47km/h | 10750m | 4.4m/s | -46.2°C | 25.4% | 0hPa | 0V | 00:00:00 | 00:00:00 | 00:00:00 | |
| LZ4TU-5 | 2026-08-30 23:49:00 | 43.23283 | 22.04919 | 132° | 60km/h | 10266m | 4.2m/s | -42.2°C | 24.7% | 0hPa | 0V | 00:00:00 | 00:00:00 | 00:00:00 | |
| LZ4TU-5 | 2026-08-30 23:48:55 | 43.23335 | 22.04834 | 127° | 58km/h | 10246m | 3.6m/s | -42.1°C | 25.0% | 0hPa | 0V | 00:00:00 | 00:00:00 | 00:00:00 | |
| LZ4TU-5 | 2026-08-30 23:47:14 | 43.24362 | 22.03487 | 139° | 51km/h | 9831m | 6.3m/s | -39.2°C | 22.9% | 0hPa | 0V | 00:00:00 | 00:00:00 | 00:00:00 | |
| LZ4TU-5 | 2026-08-30 23:47:09 | 43.24407 | 22.03440 | 142° | 53km/h | 9802m | 4.6m/s | -39.0°C | 0% | 0hPa | 0V | 00:00:00 | 00:00:00 | 00:00:00 | |
| LZ4TU-5 | 2026-08-30 23:45:22 | 43.25506 | 22.02289 | 139° | 42km/h | 9332m | 5.4m/s | -34.8°C | 15.6% | 0hPa | 0V | 00:00:00 | 00:00:00 | 00:00:00 | |
| LZ4TU-5 | 2026-08-30 23:45:17 | 43.25555 | 22.02249 | 148° | 55km/h | 9307m | 5.4m/s | -34.6°C | 0% | 0hPa | 0V | 00:00:00 | 00:00:00 | 00:00:00 | |
| LZ4TU-5 | 2026-08-30 23:43:17 | 43.26641 | 22.01251 | 146° | 47km/h | 8732m | 4.0m/s | -30.1°C | 14.2% | 0hPa | 0V | 00:00:00 | 00:00:00 | 00:00:00 | |
| LZ4TU-5 | 2026-08-30 23:43:12 | 43.26679 | 22.01208 | 134° | 37km/h | 8711m | 4.0m/s | -29.9°C | 14.1% | 0hPa | 0V | 00:00:00 | 00:00:00 | 00:00:00 | |
| LZ4TU-5 | 2026-08-30 23:41:34 | 43.27345 | 22.00295 | 136° | 40km/h | 8269m | 4.6m/s | -26.4°C | 12.5% | 0hPa | 0V | 00:00:00 | 00:00:00 | 00:00:00 | |
| LZ4TU-5 | 2026-08-30 23:41:28 | 43.27382 | 22.00247 | 138° | 35km/h | 8246m | 3.7m/s | -26.2°C | 12.5% | 0hPa | 0V | 00:00:00 | 00:00:00 | 00:00:00 | |
| LZ4TU-5 | 2026-08-30 23:40:04 | 43.27935 | 21.99492 | 100° | 35km/h | 7861m | 5.3m/s | -23.6°C | 11.1% | 0hPa | 0V | 00:00:00 | 00:00:00 | 00:00:00 | |
| LZ4TU-5 | 2026-08-30 23:39:59 | 43.27960 | 21.99427 | 137° | 57km/h | 7838m | 6.2m/s | -23.4°C | 12.9% | 0hPa | 0V | 00:00:00 | 00:00:00 | 00:00:00 | |
| LZ4TU-5 | 2026-08-30 23:38:34 | 43.28434 | 21.98382 | 104° | 55km/h | 7433m | 4.0m/s | -20.2°C | 19.5% | 0hPa | 0V | 00:00:00 | 00:00:00 | 00:00:00 | |
| LZ4TU-5 | 2026-08-30 23:38:30 | 43.28453 | 21.98328 | 126° | 35km/h | 7415m | 4.1m/s | -19.9°C | 19.5% | 0hPa | 0V | 00:00:00 | 00:00:00 | 00:00:00 | |
| LZ4TU-5 | 2026-08-30 23:37:14 | 43.28811 | 21.97465 | 128° | 53km/h | 7053m | 4.0m/s | -17.3°C | 15.3% | 0hPa | 0V | 00:00:00 | 00:00:00 | 00:00:00 | |
| LZ4TU-5 | 2026-08-30 23:37:10 | 43.28839 | 21.97431 | 142° | 16km/h | 7034m | 4.1m/s | -17.1°C | 16.3% | 0hPa | 0V | 00:00:00 | 00:00:00 | 00:00:00 | |
| LZ4TU-5 | 2026-08-30 23:35:55 | 43.29192 | 21.96445 | 89° | 31km/h | 6663m | 4.7m/s | -14.0°C | 22.5% | 0hPa | 0V | 00:00:00 | 00:00:00 | 00:00:00 | |
| LZ4TU-5 | 2026-08-30 23:35:50 | 43.29212 | 21.96379 | 118° | 53km/h | 6631m | 6.3m/s | -13.7°C | 22.3% | 0hPa | 0V | 00:00:00 | 00:00:00 | 00:00:00 | |
| LZ4TU-5 | 2026-08-30 23:34:31 | 43.29628 | 21.95528 | 119° | 49km/h | 6240m | 5.5m/s | -11.3°C | 11.8% | 0hPa | 0V | 00:00:00 | 00:00:00 | 00:00:00 | |
| LZ4TU-5 | 2026-08-30 23:34:27 | 43.29654 | 21.95486 | 91° | 15km/h | 6216m | 5.3m/s | -11.2°C | 0% | 0hPa | 0V | 00:00:00 | 00:00:00 | 00:00:00 | |
| LZ4TU-5 | 2026-08-30 23:33:10 | 43.30069 | 21.94766 | 104° | 31km/h | 5838m | 4.9m/s | -10.1°C | 40.7% | 0hPa | 0V | 00:00:00 | 00:00:00 | 00:00:00 | |
| LZ4TU-5 | 2026-08-30 23:33:05 | 43.30090 | 21.94709 | 125° | 40km/h | 5816m | 4.4m/s | -10.0°C | 43.2% | 0hPa | 0V | 00:00:00 | 00:00:00 | 00:00:00 | |
| LZ4TU-5 | 2026-08-30 23:31:55 | 43.30328 | 21.94123 | 0° | 0km/h | 5485m | 3.5m/s | -8.1°C | 57.7% | 0hPa | 0V | 00:00:00 | 00:00:00 | 00:00:00 | |
| LZ4TU-5 | 2026-08-30 23:31:50 | 43.30353 | 21.94112 | 137° | 38km/h | 5461m | 5.4m/s | -8.0°C | 57.9% | 0hPa | 0V | 00:00:00 | 00:00:00 | 00:00:00 | |
| LZ4TU-5 | 2026-08-30 23:30:34 | 43.30632 | 21.93468 | 111° | 49km/h | 5071m | 2.9m/s | -5.1°C | 43.9% | 0hPa | 0V | 00:00:00 | 00:00:00 | 00:00:00 | |
| LZ4TU-5 | 2026-08-30 23:30:30 | 43.30632 | 21.93418 | 40° | 4km/h | 5046m | 5.4m/s | -4.9°C | 44.9% | 0hPa | 0V | 00:00:00 | 00:00:00 | 00:00:00 | |
| LZ4TU-5 | 2026-08-30 23:28:04 | 43.30995 | 21.92501 | 141° | 46km/h | 4266m | 4.7m/s | -1.2°C | 71.6% | 0hPa | 0V | 00:00:00 | 00:00:00 | 00:00:00 | |
| LZ4TU-5 | 2026-08-30 23:28:00 | 43.31013 | 21.92430 | 92° | 44km/h | 4239m | 4.3m/s | -1.0°C | 69.7% | 0hPa | 0V | 00:00:00 | 00:00:00 | 00:00:00 | |
| LZ4TU-5 | 2026-08-30 23:26:50 | 43.31286 | 21.91778 | 116° | 26km/h | 3872m | 6.1m/s | 2.1°C | 64.9% | 0hPa | 0V | 00:00:00 | 00:00:00 | 00:00:00 | |
| LZ4TU-5 | 2026-08-30 23:26:46 | 43.31311 | 21.91761 | 151° | 42km/h | 3849m | 5.2m/s | 2.3°C | 64.9% | 0hPa | 0V | 00:00:00 | 00:00:00 | 00:00:00 | |
| LZ4TU-5 | 2026-08-30 23:25:36 | 43.31676 | 21.91117 | 100° | 37km/h | 3492m | 5.8m/s | 4.6°C | 77.1% | 0hPa | 0V | 00:00:00 | 00:00:00 | 00:00:00 | |
| LZ4TU-5 | 2026-08-30 23:25:32 | 43.31673 | 21.91076 | 99° | 26km/h | 3472m | 6.0m/s | 4.7°C | 76.7% | 0hPa | 0V | 00:00:00 | 00:00:00 | 00:00:00 | |
| LZ4TU-5 | 2026-08-30 23:25:28 | 43.31696 | 21.91053 | 165° | 33km/h | 3448m | 4.6m/s | 5.0°C | 75.7% | 0hPa | 0V | 00:00:00 | 00:00:00 | 00:00:00 |